createdAt,value
2023-02-27T00:01:50.140Z,4.40
2023-02-27T00:04:19.054Z,3.40
2023-02-27T00:06:47.192Z,3.80
2023-02-27T00:09:20.408Z,3.40
2023-02-27T00:11:49.630Z,3.30
2023-02-27T00:14:18.123Z,9.30
2023-02-27T00:16:48.334Z,4.90
2023-02-27T00:19:16.513Z,4.30
2023-02-27T00:21:44.779Z,4.60
2023-02-27T00:24:22.771Z,4.40
2023-02-27T00:26:55.240Z,4.40
2023-02-27T00:29:23.570Z,4.10
2023-02-27T00:31:53.473Z,3.50
2023-02-27T00:34:22.238Z,3.20
2023-02-27T00:36:50.803Z,4.50
2023-02-27T00:39:19.080Z,4.70
2023-02-27T00:41:47.339Z,4.40
2023-02-27T00:44:15.458Z,4.20
2023-02-27T00:46:43.874Z,5.60
2023-02-27T00:49:18.175Z,4.30
2023-02-27T00:51:47.701Z,4.00
2023-02-27T00:54:15.882Z,4.30
2023-02-27T00:56:44.431Z,4.20
2023-02-27T01:01:11.905Z,4.00
2023-02-27T01:03:40.637Z,4.30
2023-02-27T01:06:08.807Z,3.70
2023-02-27T01:08:36.930Z,4.80
2023-02-27T01:11:09.077Z,3.90
2023-02-27T01:13:40.976Z,4.00
2023-02-27T01:16:10.723Z,3.90
2023-02-27T01:18:39.052Z,3.50
2023-02-27T01:21:08.525Z,3.50
2023-02-27T01:23:37.265Z,3.90
2023-02-27T01:26:05.710Z,3.90
2023-02-27T01:28:35.389Z,3.90
2023-02-27T01:31:03.823Z,3.60
2023-02-27T01:33:34.312Z,3.40
2023-02-27T01:36:02.567Z,4.40
2023-02-27T01:38:31.286Z,3.70
2023-02-27T01:41:09.005Z,4.80
2023-02-27T01:43:54.464Z,4.90
2023-02-27T01:46:23.782Z,3.70
2023-02-27T01:48:54.587Z,3.70
2023-02-27T01:51:22.726Z,4.20
2023-02-27T01:53:51.885Z,4.00
2023-02-27T01:56:27.813Z,4.00
2023-02-27T01:59:01.970Z,4.40
2023-02-27T02:01:31.391Z,4.80
2023-02-27T02:04:10.595Z,4.80
2023-02-27T02:06:41.068Z,3.90
2023-02-27T02:09:09.189Z,4.00
2023-02-27T02:11:37.924Z,5.10
2023-02-27T02:14:11.123Z,4.60
2023-02-27T02:16:48.064Z,4.20
2023-02-27T02:19:55.080Z,4.90
2023-02-27T02:22:51.063Z,4.30
2023-02-27T02:25:58.878Z,4.40
2023-02-27T02:28:39.048Z,3.90
2023-02-27T02:31:08.662Z,4.40
2023-02-27T02:33:52.532Z,4.00
2023-02-27T02:36:58.383Z,4.30
2023-02-27T02:39:52.563Z,4.20
2023-02-27T02:42:22.868Z,3.80
2023-02-27T02:44:59.883Z,3.50
2023-02-27T02:47:33.359Z,4.30
2023-02-27T02:50:53.128Z,4.10
2023-02-27T02:53:55.494Z,3.00
2023-02-27T02:56:27.146Z,4.30
2023-02-27T02:59:02.799Z,3.70
2023-02-27T03:01:51.583Z,4.00
2023-02-27T03:04:37.335Z,3.80
2023-02-27T03:07:17.034Z,4.60
2023-02-27T03:10:00.947Z,4.20
2023-02-27T03:12:29.971Z,4.10
2023-02-27T03:15:16.680Z,4.20
2023-02-27T03:17:51.867Z,3.60
2023-02-27T03:20:32.783Z,4.10
2023-02-27T03:23:07.237Z,4.90
2023-02-27T03:25:39.432Z,4.90
2023-02-27T03:28:11.251Z,4.70
2023-02-27T03:30:47.553Z,4.40
2023-02-27T03:33:26.051Z,3.80
2023-02-27T03:35:59.833Z,4.60
2023-02-27T03:38:52.639Z,5.30
2023-02-27T03:41:37.673Z,6.60
2023-02-27T03:44:39.150Z,6.40
2023-02-27T03:47:07.606Z,6.30
2023-02-27T03:49:36.416Z,6.00
2023-02-27T03:52:05.711Z,4.50
2023-02-27T03:54:36.835Z,4.20
2023-02-27T03:57:08.303Z,4.50
2023-02-27T03:59:37.304Z,3.70
2023-02-27T04:02:06.726Z,3.90
2023-02-27T04:04:36.269Z,4.20
2023-02-27T04:07:25.190Z,4.80
2023-02-27T04:10:13.915Z,4.40
2023-02-27T04:12:51.357Z,5.20
2023-02-27T04:15:25.177Z,4.00
2023-02-27T04:18:32.173Z,4.50
2023-02-27T04:21:18.441Z,5.20
2023-02-27T04:24:07.284Z,5.40
2023-02-27T04:26:41.385Z,6.50
2023-02-27T04:29:32.516Z,4.40
2023-02-27T04:32:04.986Z,5.40
2023-02-27T04:34:48.108Z,4.60
2023-02-27T04:37:21.505Z,4.50
2023-02-27T04:39:54.210Z,4.60
2023-02-27T04:42:25.940Z,4.90
2023-02-27T04:45:00.706Z,4.50
2023-02-27T04:47:32.582Z,4.50
2023-02-27T04:50:10.337Z,3.90
2023-02-27T04:52:42.341Z,3.70
2023-02-27T04:55:31.437Z,4.60
2023-02-27T04:58:08.032Z,4.50
2023-02-27T05:00:36.581Z,4.30
2023-02-27T05:03:17.385Z,4.00
2023-02-27T05:05:46.436Z,4.00
2023-02-27T05:08:27.216Z,3.80
2023-02-27T05:10:59.153Z,3.90
2023-02-27T05:13:30.558Z,4.10
2023-02-27T05:16:07.536Z,4.50
2023-02-27T05:18:36.269Z,5.70
2023-02-27T05:21:28.175Z,5.50
2023-02-27T05:23:59.938Z,4.70
2023-02-27T05:26:58.865Z,4.80
2023-02-27T05:29:30.607Z,5.40
2023-02-27T05:32:24.726Z,4.60
2023-02-27T05:34:58.720Z,4.30
2023-02-27T05:37:36.587Z,5.50
2023-02-27T05:40:08.595Z,5.20
2023-02-27T05:42:40.112Z,5.20
2023-02-27T05:45:11.291Z,6.90
2023-02-27T05:47:44.026Z,5.70
2023-02-27T05:52:48.833Z,4.30
2023-02-27T05:55:30.165Z,5.40
2023-02-27T05:58:02.148Z,4.40
2023-02-27T06:01:01.904Z,4.30
2023-02-27T06:03:32.521Z,5.10
2023-02-27T06:06:02.321Z,5.30
2023-02-27T06:08:30.912Z,5.80
2023-02-27T06:11:00.701Z,5.00
2023-02-27T06:13:30.022Z,4.50
2023-02-27T06:15:58.165Z,4.70
2023-02-27T06:18:28.338Z,4.80
2023-02-27T06:20:57.622Z,5.00
2023-02-27T06:23:25.741Z,8.30
2023-02-27T06:25:54.091Z,6.30
2023-02-27T06:28:27.192Z,7.50
2023-02-27T06:30:57.360Z,6.90
2023-02-27T06:33:28.490Z,6.70
2023-02-27T06:35:58.982Z,6.60
2023-02-27T06:38:27.165Z,6.20
2023-02-27T06:40:57.255Z,5.90
2023-02-27T06:43:26.020Z,4.60
2023-02-27T06:45:56.001Z,4.70
2023-02-27T06:54:58.831Z,6.10
2023-02-27T06:57:27.059Z,7.00
2023-02-27T06:59:56.005Z,6.10
2023-02-27T07:02:25.761Z,6.40
2023-02-27T07:04:54.841Z,6.40
2023-02-27T07:07:34.501Z,5.20
2023-02-27T07:10:07.382Z,5.20
2023-02-27T07:12:35.581Z,5.60
2023-02-27T07:15:05.030Z,5.80
2023-02-27T07:17:33.865Z,5.10
2023-02-27T07:20:08.374Z,7.20
2023-02-27T07:22:37.853Z,7.00
2023-02-27T07:25:06.566Z,6.20
2023-02-27T07:27:36.343Z,6.10
2023-02-27T07:30:04.895Z,6.20
2023-02-27T07:32:33.316Z,6.90
2023-02-27T13:19:13.553Z,5.30
2023-02-27T13:21:54.508Z,66.90
2023-02-27T13:24:30.491Z,30.20
2023-02-27T13:27:17.028Z,23.20
2023-02-27T13:30:03.866Z,12.30
2023-02-27T13:33:13.471Z,5.50
2023-02-27T13:35:49.640Z,14.90
2023-02-27T13:38:46.453Z,4.50
2023-02-27T13:41:21.281Z,25.70
2023-02-27T13:44:12.979Z,30.50
2023-02-27T13:46:41.677Z,32.60
2023-02-27T13:49:27.000Z,7.40
2023-02-27T13:52:00.679Z,41.20
2023-02-27T13:54:37.517Z,17.60
2023-02-27T13:57:26.157Z,44.90
2023-02-27T13:59:59.610Z,50.80
2023-02-27T14:03:04.025Z,41.60
2023-02-27T14:05:59.110Z,55.60
2023-02-27T14:08:49.372Z,30.10
2023-02-27T14:11:53.967Z,21.80
2023-02-27T14:14:44.617Z,25.90
2023-02-27T14:18:12.329Z,11.50
2023-02-27T14:20:42.449Z,15.60
2023-02-27T14:23:25.801Z,8.50
2023-02-27T14:25:58.739Z,74.00
2023-02-27T14:28:34.795Z,36.10
2023-02-27T14:31:06.896Z,59.80
2023-02-27T14:33:44.064Z,9.70
2023-02-27T14:36:17.597Z,54.30
2023-02-27T14:38:47.122Z,43.60
2023-02-27T14:41:19.132Z,132.70
2023-02-27T14:43:58.388Z,31.50
2023-02-27T14:46:36.014Z,47.60
2023-02-27T14:49:08.575Z,76.00
2023-02-27T14:51:37.184Z,73.20
2023-02-27T14:54:17.350Z,45.70
2023-02-27T14:56:57.695Z,74.20
2023-02-27T14:59:28.367Z,93.20
2023-02-27T15:01:59.508Z,16.90
2023-02-27T15:04:31.272Z,5.20
2023-02-27T15:07:01.992Z,103.30
2023-02-27T15:09:38.471Z,10.80
2023-02-27T15:12:09.806Z,48.90
2023-02-27T15:14:40.675Z,32.60
2023-02-27T15:17:20.854Z,24.20
2023-02-27T15:19:57.950Z,7.50
2023-02-27T15:22:39.344Z,14.30
2023-02-27T15:25:38.014Z,4.60
2023-02-27T15:28:29.812Z,5.80
2023-02-27T15:31:00.128Z,5.10
2023-02-27T15:33:32.550Z,5.20
2023-02-27T15:38:37.060Z,5.10
2023-02-27T15:41:11.911Z,3.30
2023-02-27T15:43:45.067Z,3.50
2023-02-27T15:46:13.642Z,3.40
2023-02-27T15:48:41.952Z,2.90
2023-02-27T15:51:10.234Z,3.60
2023-02-27T15:53:38.483Z,4.10
2023-02-27T15:56:09.790Z,6.30
2023-02-27T15:58:49.131Z,4.60
2023-02-27T16:01:21.948Z,5.30
2023-02-27T16:03:51.815Z,6.70
2023-02-27T16:06:44.746Z,5.90
2023-02-27T16:09:49.492Z,5.10
2023-02-27T16:12:30.160Z,5.60
2023-02-27T16:15:33.352Z,5.40
2023-02-27T16:18:15.556Z,4.30
2023-02-27T16:20:48.166Z,3.90
2023-02-27T16:23:27.690Z,3.90
2023-02-27T16:26:14.823Z,4.60
2023-02-27T16:28:50.928Z,5.20
2023-02-27T16:31:32.807Z,5.90
2023-02-27T16:34:20.582Z,6.80
2023-02-27T16:36:57.267Z,6.30
2023-02-27T16:39:25.609Z,5.40
2023-02-27T16:41:54.629Z,6.20
2023-02-27T16:44:24.438Z,8.00
2023-02-27T16:46:53.502Z,7.20
2023-02-27T16:49:27.721Z,7.70
2023-02-27T16:51:56.579Z,6.30
2023-02-27T16:54:24.848Z,10.20
2023-02-27T16:56:52.901Z,10.30
2023-02-27T16:59:44.139Z,17.50
2023-02-27T17:02:15.574Z,44.70
2023-02-27T17:04:46.980Z,29.60
2023-02-27T17:07:16.244Z,20.00
2023-02-27T17:09:47.118Z,13.90
2023-02-27T17:12:17.905Z,111.00
2023-02-27T17:14:50.236Z,39.20
2023-02-27T17:17:19.497Z,11.30
2023-02-27T17:19:51.681Z,11.50
2023-02-27T17:22:33.085Z,12.20
2023-02-27T17:25:06.467Z,10.00
2023-02-27T17:27:35.542Z,9.00
2023-02-27T17:30:11.403Z,4.30
2023-02-27T17:32:41.081Z,4.40
2023-02-27T17:37:44.188Z,4.50
2023-02-27T17:40:27.021Z,35.70
2023-02-27T17:45:45.337Z,9.30
2023-02-27T17:48:14.975Z,32.80
2023-02-27T17:50:45.014Z,6.90
2023-02-27T17:53:15.199Z,8.70
2023-02-27T17:55:44.114Z,29.00
2023-02-27T17:58:19.397Z,64.80
2023-02-27T18:00:53.424Z,75.30
2023-02-27T18:03:22.341Z,70.00
2023-02-27T18:05:53.025Z,8.10
2023-02-27T18:08:25.599Z,5.80
2023-02-27T18:11:01.214Z,6.70
2023-02-27T18:13:30.231Z,8.30
2023-02-27T18:16:01.085Z,8.10
2023-02-27T18:18:30.753Z,7.90
2023-02-27T18:21:05.202Z,7.10
2023-02-27T18:23:47.477Z,6.70
2023-02-27T18:26:32.850Z,8.40
2023-02-27T18:29:09.611Z,5.70
2023-02-27T18:31:42.984Z,6.60
2023-02-27T18:34:13.934Z,6.10
2023-02-27T18:36:45.368Z,6.70
2023-02-27T18:39:13.502Z,16.30
2023-02-27T18:41:50.077Z,24.10
2023-02-27T18:44:20.302Z,7.10
2023-02-27T18:46:50.443Z,5.50
2023-02-27T18:49:19.605Z,4.70
2023-02-27T18:51:54.258Z,4.30
2023-02-27T18:54:27.338Z,4.60
2023-02-27T18:57:00.952Z,4.10
2023-02-27T18:59:33.959Z,4.80
2023-02-27T19:02:04.230Z,4.70
2023-02-27T19:04:35.298Z,7.20
2023-02-27T19:07:03.538Z,5.90
2023-02-27T19:09:37.949Z,15.70
2023-02-27T19:12:07.241Z,7.60
2023-02-27T19:14:38.305Z,5.60
2023-02-27T19:17:13.741Z,5.00
2023-02-27T19:19:44.544Z,4.20
2023-02-27T19:22:13.045Z,5.30
2023-02-27T19:24:42.237Z,6.10
2023-02-27T19:27:12.562Z,4.20
2023-02-27T19:29:41.163Z,4.20
2023-02-27T19:32:09.906Z,4.40
2023-02-27T19:34:41.040Z,5.10
2023-02-27T19:37:10.026Z,4.70
2023-02-27T19:39:42.271Z,5.40
2023-02-27T19:42:10.680Z,4.00
2023-02-27T19:44:40.604Z,4.10
2023-02-27T19:47:09.506Z,3.90
2023-02-27T19:49:41.237Z,4.40
2023-02-27T19:52:13.336Z,4.80
2023-02-27T19:54:42.984Z,4.80
2023-02-27T19:57:14.982Z,5.20
2023-02-27T19:59:43.587Z,7.80
2023-02-27T20:02:12.444Z,7.70
2023-02-27T20:04:40.564Z,6.10
2023-02-27T20:07:10.294Z,6.50
2023-02-27T20:09:41.137Z,6.70
2023-02-27T20:12:10.154Z,6.60
2023-02-27T20:14:46.430Z,5.70
2023-02-27T20:17:14.936Z,6.70
2023-02-27T20:19:44.052Z,7.10
2023-02-27T20:22:13.776Z,5.40
2023-02-27T20:24:42.060Z,4.90
2023-02-27T20:27:15.732Z,5.70
2023-02-27T20:29:44.388Z,6.00
2023-02-27T20:32:13.067Z,5.30
2023-02-27T20:34:44.106Z,5.20
2023-02-27T20:37:13.876Z,5.30
2023-02-27T20:39:45.869Z,9.50
2023-02-27T20:42:15.426Z,4.30
2023-02-27T20:44:46.571Z,4.20
2023-02-27T20:47:17.365Z,4.30
2023-02-27T20:49:46.880Z,23.70
2023-02-27T20:52:15.271Z,129.90
2023-02-27T20:54:44.119Z,200.40
2023-02-27T20:57:12.295Z,155.30
2023-02-27T20:59:40.681Z,104.70
2023-02-27T21:02:10.230Z,718.90
2023-02-27T21:10:52.880Z,337.80
2023-02-27T21:13:24.078Z,142.80
2023-02-27T21:15:54.930Z,76.50
2023-02-27T21:18:23.115Z,79.20
2023-02-27T21:20:52.414Z,113.90
2023-02-27T21:23:21.673Z,226.10
2023-02-27T21:25:49.777Z,299.30
2023-02-27T21:28:19.898Z,201.80
2023-02-27T21:30:52.965Z,95.60
2023-02-27T21:33:24.948Z,200.90
2023-02-27T21:35:53.365Z,90.10
2023-02-27T21:38:23.958Z,104.30
2023-02-27T21:40:53.459Z,17.50
2023-02-27T21:43:23.029Z,4.90
2023-02-27T21:45:56.105Z,41.10
2023-02-27T21:48:28.416Z,5.20
2023-02-27T21:50:58.643Z,27.10
2023-02-27T21:53:27.819Z,28.80
2023-02-27T21:55:57.551Z,6.70
2023-02-27T21:58:25.903Z,199.10
2023-02-27T22:00:54.519Z,138.20
2023-02-27T22:03:22.538Z,109.90
2023-02-27T22:05:55.198Z,138.30
2023-02-27T22:08:23.239Z,72.20
2023-02-27T22:11:01.137Z,48.20
2023-02-27T22:13:33.953Z,89.50
2023-02-27T22:16:09.598Z,312.00
2023-02-27T22:18:40.879Z,50.10
2023-02-27T22:21:10.938Z,74.10
2023-02-27T22:23:41.029Z,124.90
2023-02-27T22:26:13.665Z,118.10
2023-02-27T22:28:43.021Z,43.50
2023-02-27T22:31:19.841Z,22.30
2023-02-27T22:33:56.348Z,33.80
2023-02-27T22:36:29.384Z,49.90
2023-02-27T22:38:57.897Z,29.20
2023-02-27T22:41:35.812Z,22.70
2023-02-27T22:44:04.910Z,5.30
2023-02-27T22:46:33.961Z,4.30
2023-02-27T22:49:19.789Z,3.80
2023-02-27T22:51:52.873Z,3.80
2023-02-27T22:56:53.296Z,4.30
2023-02-27T22:59:31.044Z,5.10
2023-02-27T23:02:01.623Z,7.50
2023-02-27T23:04:35.213Z,5.30
2023-02-27T23:07:03.760Z,8.20
2023-02-27T23:09:32.302Z,5.10
2023-02-27T23:12:04.280Z,5.00
2023-02-27T23:14:34.024Z,5.40
2023-02-27T23:17:02.094Z,4.40
2023-02-27T23:19:31.035Z,4.10
2023-02-27T23:21:59.467Z,4.70
2023-02-27T23:24:30.144Z,4.20
2023-02-27T23:27:16.383Z,4.40
2023-02-27T23:29:56.100Z,4.60
2023-02-27T23:32:24.780Z,4.80
2023-02-27T23:34:54.648Z,8.40
2023-02-27T23:37:26.118Z,8.80
2023-02-27T23:39:56.493Z,5.50
2023-02-27T23:42:24.653Z,5.70
2023-02-27T23:44:53.120Z,4.80
2023-02-27T23:47:40.196Z,4.10
2023-02-27T23:50:10.961Z,4.30
2023-02-27T23:52:40.032Z,4.30
2023-02-27T23:55:09.772Z,4.40
2023-02-27T23:57:40.502Z,5.00
